Time;durP1;ratioP1;P1;durP2;ratioP2;P2;SDS_P1;SDS_P2;PMS_P1;PMS_P2;Temp;Humidity;BMP_temperature;BMP_pressure;BME280_temperature;BME280_humidity;BME280_pressure;Samples;Min_cycle;Max_cycle;Signal;HPM_P1;HPM_P2
2021/12/07 00:01:05;;;;;;;7.00;6.13;;;;;;;;;;5095939;28;20189;-83
2021/12/07 00:03:32;;;;;;;7.03;6.40;;;;;;;;;;5096041;28;20728;-83
2021/12/07 00:06:00;;;;;;;5.55;5.05;;;;;;;;;;5096138;28;20226;-84
2021/12/07 00:08:28;;;;;;;6.65;6.10;;;;;;;;;;5095196;28;20658;-83
2021/12/07 00:10:56;;;;;;;6.55;5.85;;;;;;;;;;5095515;28;20189;-83
2021/12/07 00:13:28;;;;;;;6.35;5.85;;;;;;;;;;5095510;28;20176;-83
2021/12/07 00:15:57;;;;;;;12.80;7.10;;;;;;;;;;5096506;28;20219;-83
2021/12/07 00:18:25;;;;;;;6.68;5.97;;;;;;;;;;5095746;28;20196;-82
2021/12/07 00:20:52;;;;;;;7.22;6.53;;;;;;;;;;5074589;28;20196;-83
2021/12/07 00:23:20;;;;;;;6.82;6.15;;;;;;;;;;5075109;28;20238;-83
2021/12/07 00:25:48;;;;;;;6.28;5.72;;;;;;;;;;5075429;28;20241;-82
2021/12/07 00:28:18;;;;;;;5.57;5.07;;;;;;;;;;5075388;28;20191;-83
2021/12/07 00:30:48;;;;;;;7.25;6.43;;;;;;;;;;5075042;28;20248;-83
2021/12/07 00:33:31;;;;;;;6.13;5.43;;;;;;;;;;5075573;28;20244;-83
2021/12/07 00:35:58;;;;;;;7.05;6.18;;;;;;;;;;5076025;28;20231;-83
2021/12/07 00:38:27;;;;;;;5.68;5.18;;;;;;;;;;5075830;28;20627;-82
2021/12/07 00:40:59;;;;;;;7.00;5.10;;;;;;;;;;5076669;28;20273;-82
2021/12/07 00:43:28;;;;;;;6.40;5.80;;;;;;;;;;5076124;28;20201;-83
2021/12/07 00:45:58;;;;;;;6.18;5.40;;;;;;;;;;5077299;28;20741;-83
2021/12/07 00:48:27;;;;;;;6.15;5.32;;;;;;;;;;5091605;28;20199;-82
2021/12/07 00:50:56;;;;;;;5.95;5.35;;;;;;;;;;5095975;28;20200;-83
2021/12/07 00:53:25;;;;;;;5.03;4.55;;;;;;;;;;5096012;28;20275;-83
2021/12/07 00:55:59;;;;;;;6.72;5.35;;;;;;;;;;5096207;28;20594;-82
2021/12/07 00:58:28;;;;;;;6.43;5.82;;;;;;;;;;5096537;28;20271;-82
2021/12/07 01:00:59;;;;;;;4.90;4.50;;;;;;;;;;5096148;28;20196;-83
2021/12/07 01:03:30;;;;;;;5.45;4.95;;;;;;;;;;5095983;28;20716;-84
2021/12/07 01:06:14;;;;;;;7.00;5.00;;;;;;;;;;5096728;28;20231;-84
2021/12/07 01:25:20;;;;;;;6.65;4.90;;;;;;;;;;5076903;28;20621;-83
2021/12/07 01:27:50;;;;;;;5.35;4.82;;;;;;;;;;5076659;28;20599;-83
2021/12/07 01:30:21;;;;;;;4.75;4.28;;;;;;;;;;5077493;28;20189;-83
2021/12/07 01:33:05;;;;;;;5.90;5.30;;;;;;;;;;5079738;28;20192;-83
2021/12/07 01:35:51;;;;;;;5.30;4.82;;;;;;;;;;5078789;28;20220;-82
2021/12/07 01:38:30;;;;;;;6.57;4.72;;;;;;;;;;5091596;28;20189;-83
2021/12/07 01:41:11;;;;;;;4.43;4.05;;;;;;;;;;5098672;28;20606;-83
2021/12/07 01:46:45;;;;;;;6.20;5.40;;;;;;;;;;5095577;28;20223;-84
2021/12/07 01:52:26;;;;;;;6.20;5.07;;;;;;;;;;5098508;28;20191;-84
2021/12/07 02:00:28;;;;;;;5.95;5.30;;;;;;;;;;5077755;28;20184;-84
2021/12/07 02:02:56;;;;;;;5.50;5.00;;;;;;;;;;5078391;28;20205;-83
2021/12/07 02:05:24;;;;;;;4.78;4.20;;;;;;;;;;5077542;28;20220;-83
2021/12/07 02:07:53;;;;;;;5.55;4.57;;;;;;;;;;5077823;28;20192;-84
2021/12/07 02:10:24;;;;;;;5.18;4.70;;;;;;;;;;5077344;28;20650;-83
2021/12/07 02:12:55;;;;;;;4.85;4.45;;;;;;;;;;5077884;28;20185;-82
2021/12/07 02:15:26;;;;;;;5.55;4.50;;;;;;;;;;5077084;28;20217;-82
2021/12/07 02:17:54;;;;;;;5.53;5.03;;;;;;;;;;5097042;28;20204;-82
2021/12/07 02:20:27;;;;;;;5.50;5.00;;;;;;;;;;5097347;28;20576;-83
2021/12/07 02:22:56;;;;;;;5.82;5.28;;;;;;;;;;5097040;28;20662;-82
2021/12/07 02:25:24;;;;;;;5.20;4.70;;;;;;;;;;5097207;28;20236;-82
2021/12/07 02:27:53;;;;;;;6.10;5.47;;;;;;;;;;5095346;28;20196;-83
2021/12/07 02:30:24;;;;;;;6.38;4.97;;;;;;;;;;5097269;28;20224;-82
2021/12/07 02:32:53;;;;;;;5.13;4.72;;;;;;;;;;5097361;28;20567;-83
2021/12/07 02:35:25;;;;;;;5.00;4.50;;;;;;;;;;5097088;28;20240;-82
2021/12/07 02:37:56;;;;;;;5.13;4.63;;;;;;;;;;5097251;28;20199;-82
2021/12/07 02:40:24;;;;;;;5.85;5.30;;;;;;;;;;5097236;28;20634;-82
2021/12/07 02:42:52;;;;;;;5.80;5.20;;;;;;;;;;5096081;28;20192;-82
2021/12/07 02:45:22;;;;;;;6.47;5.63;;;;;;;;;;5096961;28;20220;-82
2021/12/07 02:47:50;;;;;;;6.18;5.57;;;;;;;;;;5097112;28;20192;-82
2021/12/07 02:50:19;;;;;;;4.88;4.25;;;;;;;;;;5096972;28;20184;-82
2021/12/07 02:52:47;;;;;;;5.32;4.25;;;;;;;;;;5097021;28;20193;-82
2021/12/07 02:55:16;;;;;;;5.60;4.93;;;;;;;;;;5097130;28;20224;-82
2021/12/07 02:57:44;;;;;;;5.05;4.55;;;;;;;;;;5096663;28;20191;-83
2021/12/07 03:00:19;;;;;;;5.47;4.97;;;;;;;;;;5096849;28;20208;-83
2021/12/07 03:02:53;;;;;;;4.53;4.03;;;;;;;;;;5096901;28;20190;-82
2021/12/07 03:05:34;;;;;;;4.78;4.38;;;;;;;;;;5096147;28;20266;-82
2021/12/07 03:08:29;;;;;;;5.00;4.57;;;;;;;;;;5096379;28;20231;-82
2021/12/07 03:27:31;;;;;;;4.47;4.07;;;;;;;;;;5095913;28;20615;-81
2021/12/07 03:29:58;;;;;;;5.18;4.68;;;;;;;;;;5095675;28;20218;-83
2021/12/07 03:32:26;;;;;;;4.40;4.00;;;;;;;;;;5095044;28;20211;-82
2021/12/07 03:34:53;;;;;;;3.95;3.55;;;;;;;;;;5096150;28;20220;-82
2021/12/07 03:37:20;;;;;;;5.15;4.60;;;;;;;;;;5096031;28;20201;-83
2021/12/07 03:39:48;;;;;;;4.30;3.90;;;;;;;;;;5095706;28;20574;-82
2021/12/07 03:42:16;;;;;;;3.88;3.58;;;;;;;;;;5095302;28;20291;-82
2021/12/07 03:44:45;;;;;;;3.97;3.67;;;;;;;;;;5094912;28;20265;-84
2021/12/07 03:47:12;;;;;;;4.88;4.38;;;;;;;;;;5095696;28;20179;-83
2021/12/07 03:49:39;;;;;;;4.15;3.85;;;;;;;;;;5095486;28;20179;-83
2021/12/07 03:52:08;;;;;;;4.13;3.72;;;;;;;;;;5095410;28;20207;-83
2021/12/07 03:54:35;;;;;;;4.85;4.30;;;;;;;;;;5094618;28;20187;-83
2021/12/07 03:57:03;;;;;;;3.97;3.63;;;;;;;;;;5095682;28;20185;-84
2021/12/07 03:59:30;;;;;;;4.38;3.97;;;;;;;;;;5094241;28;20196;-82
2021/12/07 04:01:59;;;;;;;3.65;3.35;;;;;;;;;;5094614;28;20188;-84
2021/12/07 04:04:27;;;;;;;3.22;2.92;;;;;;;;;;5095675;28;20220;-83
2021/12/07 04:06:55;;;;;;;3.75;3.45;;;;;;;;;;5095270;28;20203;-83
2021/12/07 04:09:22;;;;;;;4.00;3.65;;;;;;;;;;5095458;28;20205;-84
2021/12/07 04:11:50;;;;;;;4.03;3.65;;;;;;;;;;5095231;28;20180;-83
2021/12/07 04:14:17;;;;;;;3.58;3.28;;;;;;;;;;5095675;28;20551;-84
2021/12/07 04:16:47;;;;;;;3.10;2.80;;;;;;;;;;5094950;28;20208;-83
2021/12/07 04:19:16;;;;;;;4.03;3.70;;;;;;;;;;5095095;28;20788;-83
2021/12/07 04:21:43;;;;;;;4.05;3.65;;;;;;;;;;5095037;28;20179;-83
2021/12/07 04:24:11;;;;;;;3.85;3.33;;;;;;;;;;5094994;28;20211;-82
2021/12/07 04:26:40;;;;;;;5.75;5.25;;;;;;;;;;5094562;28;20243;-82
2021/12/07 04:29:07;;;;;;;4.35;3.90;;;;;;;;;;5096428;28;20549;-82
2021/12/07 04:31:35;;;;;;;4.88;4.45;;;;;;;;;;5095285;28;20200;-83
2021/12/07 04:34:02;;;;;;;3.28;2.97;;;;;;;;;;5096117;28;20188;-83
2021/12/07 04:36:31;;;;;;;3.83;3.53;;;;;;;;;;5096034;28;20222;-82
2021/12/07 04:38:59;;;;;;;2.60;2.40;;;;;;;;;;5095416;28;20208;-82
2021/12/07 04:41:31;;;;;;;3.00;2.75;;;;;;;;;;5095785;28;20634;-82
2021/12/07 04:43:59;;;;;;;2.83;2.63;;;;;;;;;;5095755;28;20184;-82
2021/12/07 04:46:34;;;;;;;3.35;3.05;;;;;;;;;;5095165;28;20321;-82
2021/12/07 04:57:43;;;;;;;2.47;2.38;;;;;;;;;;5052981;28;20200;-83
2021/12/07 05:00:16;;;;;;;2.22;2.03;;;;;;;;;;5052875;28;20241;-82
2021/12/07 05:02:48;;;;;;;1.95;1.80;;;;;;;;;;5052279;28;20193;-82
2021/12/07 05:05:17;;;;;;;2.05;1.95;;;;;;;;;;5052711;28;20267;-82
2021/12/07 05:07:51;;;;;;;2.85;2.60;;;;;;;;;;5052663;28;20201;-81
2021/12/07 05:10:29;;;;;;;1.90;1.80;;;;;;;;;;5052368;28;20267;-81
2021/12/07 05:13:21;;;;;;;2.53;2.33;;;;;;;;;;5052662;28;20185;-82
2021/12/07 05:16:21;;;;;;;2.20;2.00;;;;;;;;;;5052204;28;20704;-81
2021/12/07 05:19:02;;;;;;;2.10;2.00;;;;;;;;;;5061199;28;20247;-81
2021/12/07 05:24:20;;;;;;;1.75;1.65;;;;;;;;;;5072009;28;20196;-82
2021/12/07 05:37:53;;;;;;;1.50;1.40;;;;;;;;;;5072162;28;20274;-79
2021/12/07 05:40:27;;;;;;;1.75;1.65;;;;;;;;;;5093221;28;20834;-81
2021/12/07 05:42:56;;;;;;;1.67;1.58;;;;;;;;;;5091623;28;20189;-81
2021/12/07 05:45:27;;;;;;;2.30;2.20;;;;;;;;;;5091765;28;20225;-82
2021/12/07 05:47:55;;;;;;;2.13;1.95;;;;;;;;;;5092007;28;20196;-82
2021/12/07 05:50:25;;;;;;;1.77;1.67;;;;;;;;;;5071318;28;20670;-82
2021/12/07 05:52:53;;;;;;;1.73;1.63;;;;;;;;;;5070879;28;20209;-82
2021/12/07 05:55:22;;;;;;;2.63;2.42;;;;;;;;;;5071534;28;20220;-82
2021/12/07 05:57:50;;;;;;;1.90;1.80;;;;;;;;;;5070874;28;20192;-82
2021/12/07 06:00:24;;;;;;;1.92;1.77;;;;;;;;;;5070822;28;20195;-82
2021/12/07 06:02:53;;;;;;;3.00;2.47;;;;;;;;;;5061082;28;20244;-82
2021/12/07 06:05:22;;;;;;;2.10;2.00;;;;;;;;;;5062665;28;20209;-82
2021/12/07 06:07:49;;;;;;;1.73;1.63;;;;;;;;;;5077959;28;20215;-82
2021/12/07 06:10:17;;;;;;;1.60;1.50;;;;;;;;;;5077927;28;20193;-82
2021/12/07 06:12:46;;;;;;;2.75;2.55;;;;;;;;;;5078281;28;20189;-83
2021/12/07 06:15:17;;;;;;;2.35;2.22;;;;;;;;;;5077405;28;20311;-83
2021/12/07 06:17:45;;;;;;;2.65;2.45;;;;;;;;;;5077506;28;20265;-82
2021/12/07 06:20:13;;;;;;;3.10;2.90;;;;;;;;;;5077550;28;20564;-83
2021/12/07 06:22:41;;;;;;;4.22;3.85;;;;;;;;;;5077969;28;20185;-82
2021/12/07 06:25:10;;;;;;;2.88;2.67;;;;;;;;;;5076038;28;20227;-82
2021/12/07 06:27:39;;;;;;;2.50;2.30;;;;;;;;;;5057716;28;20240;-82
2021/12/07 06:30:11;;;;;;;2.53;2.30;;;;;;;;;;5057653;28;20201;-81
2021/12/07 06:32:39;;;;;;;3.30;3.00;;;;;;;;;;5057041;28;20695;-82
2021/12/07 06:35:09;;;;;;;2.40;2.30;;;;;;;;;;5048931;28;20214;-82
2021/12/07 06:37:37;;;;;;;2.38;2.17;;;;;;;;;;5048789;28;20196;-83
2021/12/07 06:40:08;;;;;;;1.90;1.80;;;;;;;;;;5036798;28;20189;-83
2021/12/07 06:42:38;;;;;;;1.60;1.50;;;;;;;;;;5051855;28;20182;-82
2021/12/07 06:45:08;;;;;;;1.73;1.63;;;;;;;;;;5057167;28;20225;-82
2021/12/07 06:47:36;;;;;;;2.00;1.90;;;;;;;;;;5056724;28;20202;-82
2021/12/07 06:50:05;;;;;;;2.00;1.90;;;;;;;;;;5056925;28;20605;-81
2021/12/07 06:52:32;;;;;;;2.10;2.00;;;;;;;;;;5056981;28;20233;-81
2021/12/07 06:55:00;;;;;;;1.65;1.55;;;;;;;;;;5057162;28;20232;-81
2021/12/07 06:57:29;;;;;;;1.58;1.48;;;;;;;;;;5056554;28;20201;-81
2021/12/07 06:59:56;;;;;;;1.60;1.50;;;;;;;;;;5056969;28;20201;-80
2021/12/07 07:02:25;;;;;;;1.10;1.10;;;;;;;;;;5055238;28;20197;-80
2021/12/07 07:04:53;;;;;;;0.95;0.95;;;;;;;;;;5056055;28;20229;-83
2021/12/07 07:07:22;;;;;;;2.53;2.33;;;;;;;;;;5056085;28;20194;-83
2021/12/07 07:09:52;;;;;;;1.45;1.35;;;;;;;;;;5056216;28;20233;-83
2021/12/07 07:12:23;;;;;;;2.15;2.03;;;;;;;;;;5049139;28;20602;-84
2021/12/07 07:14:52;;;;;;;1.60;1.50;;;;;;;;;;5035735;28;20225;-83
2021/12/07 07:17:19;;;;;;;1.23;1.23;;;;;;;;;;5036072;28;20194;-83
2021/12/07 07:19:48;;;;;;;1.10;1.10;;;;;;;;;;5036981;28;20207;-83
2021/12/07 07:22:16;;;;;;;1.63;1.52;;;;;;;;;;5036332;28;20569;-83
2021/12/07 07:24:45;;;;;;;1.75;1.65;;;;;;;;;;5035372;28;20228;-83
2021/12/07 07:27:13;;;;;;;1.75;1.65;;;;;;;;;;5036073;28;20206;-84
2021/12/07 07:29:40;;;;;;;2.33;1.90;;;;;;;;;;5036355;28;20202;-84
2021/12/07 07:32:09;;;;;;;1.60;1.50;;;;;;;;;;5036264;28;20234;-84
2021/12/07 07:34:36;;;;;;;3.33;1.55;;;;;;;;;;5037254;28;20627;-83
2021/12/07 07:37:06;;;;;;;1.77;1.67;;;;;;;;;;5044625;28;20282;-83
2021/12/07 07:39:34;;;;;;;1.63;1.52;;;;;;;;;;5056331;28;20565;-84
2021/12/07 07:42:03;;;;;;;1.98;1.83;;;;;;;;;;5057147;28;20186;-83
2021/12/07 07:44:30;;;;;;;2.17;2.08;;;;;;;;;;5056812;28;20209;-84
2021/12/07 07:46:57;;;;;;;1.80;1.67;;;;;;;;;;5056726;28;20198;-83
2021/12/07 07:49:25;;;;;;;1.70;1.60;;;;;;;;;;5057221;28;20189;-85
2021/12/07 07:51:52;;;;;;;1.60;1.50;;;;;;;;;;5056278;28;20237;-85
2021/12/07 07:54:21;;;;;;;1.85;1.75;;;;;;;;;;5056650;28;20207;-83
2021/12/07 07:56:48;;;;;;;2.08;1.98;;;;;;;;;;5056368;28;20197;-85
2021/12/07 07:59:16;;;;;;;1.95;1.85;;;;;;;;;;5055796;28;20201;-84
2021/12/07 08:01:43;;;;;;;1.90;1.80;;;;;;;;;;5056397;28;20202;-83
2021/12/07 08:04:11;;;;;;;1.52;1.42;;;;;;;;;;5055309;28;20210;-83
2021/12/07 08:06:38;;;;;;;1.80;1.70;;;;;;;;;;5056411;28;20231;-84
2021/12/07 08:09:08;;;;;;;2.17;1.98;;;;;;;;;;5056242;28;20190;-83
2021/12/07 08:11:37;;;;;;;2.40;2.20;;;;;;;;;;5049757;28;20207;-83
2021/12/07 08:14:05;;;;;;;3.05;2.72;;;;;;;;;;5040848;28;20206;-83
2021/12/07 08:16:33;;;;;;;2.92;2.60;;;;;;;;;;5035567;28;20240;-83
2021/12/07 08:19:01;;;;;;;3.60;2.50;;;;;;;;;;5036121;28;20202;-82
2021/12/07 08:21:29;;;;;;;3.88;3.25;;;;;;;;;;5036925;28;20198;-85
2021/12/07 08:23:56;;;;;;;4.65;2.95;;;;;;;;;;5035672;28;20202;-83
2021/12/07 08:26:25;;;;;;;2.35;2.25;;;;;;;;;;5035131;28;20233;-83
2021/12/07 08:28:55;;;;;;;2.63;2.42;;;;;;;;;;5035965;28;20202;-83
2021/12/07 08:31:24;;;;;;;3.42;3.13;;;;;;;;;;5035892;28;20582;-83
2021/12/07 08:33:51;;;;;;;3.10;2.75;;;;;;;;;;5035423;28;20217;-85
2021/12/07 08:36:19;;;;;;;4.00;3.70;;;;;;;;;;5036200;28;20214;-84
2021/12/07 08:38:46;;;;;;;2.92;2.72;;;;;;;;;;5035591;28;20203;-83
2021/12/07 08:41:16;;;;;;;3.00;2.70;;;;;;;;;;5035436;28;20209;-84
2021/12/07 08:43:43;;;;;;;2.88;2.65;;;;;;;;;;5034994;28;20198;-85
2021/12/07 08:46:14;;;;;;;2.45;2.25;;;;;;;;;;5035594;28;20218;-83
2021/12/07 08:48:42;;;;;;;2.55;2.35;;;;;;;;;;5035064;28;20195;-83
2021/12/07 08:51:12;;;;;;;2.60;2.40;;;;;;;;;;5034930;28;20584;-83
2021/12/07 08:53:47;;;;;;;3.95;3.55;;;;;;;;;;5035240;28;20593;-83
2021/12/07 09:01:46;;;;;;;2.47;2.28;;;;;;;;;;5052564;28;20208;-83
2021/12/07 09:04:17;;;;;;;2.00;1.85;;;;;;;;;;5054786;28;20202;-82
2021/12/07 09:06:44;;;;;;;2.08;1.95;;;;;;;;;;5054008;28;20251;-82
2021/12/07 09:09:12;;;;;;;2.10;1.90;;;;;;;;;;5054361;28;20202;-82
2021/12/07 09:11:40;;;;;;;2.55;2.35;;;;;;;;;;5047993;28;20210;-81
2021/12/07 09:14:09;;;;;;;2.88;2.67;;;;;;;;;;5040566;28;20700;-82
2021/12/07 09:16:37;;;;;;;4.35;3.15;;;;;;;;;;5035064;28;20590;-82
2021/12/07 09:19:06;;;;;;;4.35;3.95;;;;;;;;;;5034837;28;20707;-82
2021/12/07 09:21:34;;;;;;;4.00;3.22;;;;;;;;;;5034798;28;20202;-82
2021/12/07 09:24:02;;;;;;;4.55;4.15;;;;;;;;;;5034312;28;20195;-82
2021/12/07 09:26:30;;;;;;;4.55;4.15;;;;;;;;;;5034423;28;20227;-82
2021/12/07 09:28:58;;;;;;;4.32;4.00;;;;;;;;;;5034714;28;20202;-82
2021/12/07 09:31:25;;;;;;;3.60;3.30;;;;;;;;;;5034428;28;20195;-82
2021/12/07 09:33:54;;;;;;;2.83;2.63;;;;;;;;;;5034251;28;20207;-83
2021/12/07 09:36:24;;;;;;;3.40;3.10;;;;;;;;;;5034285;28;20249;-82
2021/12/07 09:38:52;;;;;;;4.43;3.92;;;;;;;;;;5038255;28;20691;-83
2021/12/07 09:41:20;;;;;;;4.25;3.85;;;;;;;;;;5038425;28;20198;-83
2021/12/07 09:43:48;;;;;;;2.90;2.70;;;;;;;;;;5038582;28;20210;-82
2021/12/07 09:46:16;;;;;;;3.70;3.40;;;;;;;;;;5038422;28;20226;-83
2021/12/07 09:48:46;;;;;;;3.53;3.22;;;;;;;;;;5038978;28;20209;-84
2021/12/07 09:51:17;;;;;;;3.08;2.88;;;;;;;;;;5038671;28;20728;-83
2021/12/07 09:53:47;;;;;;;4.55;4.15;;;;;;;;;;5038197;28;20210;-83
2021/12/07 09:56:18;;;;;;;3.97;3.67;;;;;;;;;;5038466;28;20228;-83
2021/12/07 09:58:48;;;;;;;3.63;3.33;;;;;;;;;;5038480;28;20310;-83
2021/12/07 10:01:15;;;;;;;3.75;3.33;;;;;;;;;;5038375;28;20245;-84
2021/12/07 10:03:43;;;;;;;4.90;4.00;;;;;;;;;;5038239;28;20206;-82
2021/12/07 10:06:10;;;;;;;4.72;4.32;;;;;;;;;;5037809;28;20731;-82
2021/12/07 10:08:39;;;;;;;4.38;3.97;;;;;;;;;;5037773;28;20209;-82
2021/12/07 10:11:11;;;;;;;4.05;3.75;;;;;;;;;;5038266;28;20189;-83
2021/12/07 10:13:42;;;;;;;4.45;4.05;;;;;;;;;;5042408;28;20226;-82
2021/12/07 10:16:14;;;;;;;4.18;3.88;;;;;;;;;;5037429;28;20215;-83
2021/12/07 10:18:43;;;;;;;3.70;3.40;;;;;;;;;;5037537;28;20198;-84
2021/12/07 10:21:17;;;;;;;3.05;2.83;;;;;;;;;;5037656;28;20202;-83
2021/12/07 10:23:46;;;;;;;5.88;5.38;;;;;;;;;;5038033;28;20203;-83
2021/12/07 10:26:18;;;;;;;4.20;3.80;;;;;;;;;;5037257;28;20226;-83
2021/12/07 10:28:48;;;;;;;3.33;3.03;;;;;;;;;;5037496;28;20199;-83
2021/12/07 10:31:25;;;;;;;3.50;3.15;;;;;;;;;;5037175;28;20191;-83
2021/12/07 10:33:57;;;;;;;4.07;3.67;;;;;;;;;;5037654;28;20225;-84
2021/12/07 10:36:27;;;;;;;3.92;3.63;;;;;;;;;;5037208;28;20222;-83
2021/12/07 10:39:06;;;;;;;3.40;3.10;;;;;;;;;;5038079;28;20214;-82
2021/12/07 10:41:37;;;;;;;2.90;2.70;;;;;;;;;;5038448;28;20202;-83
2021/12/07 10:44:09;;;;;;;3.97;3.58;;;;;;;;;;5037087;28;20209;-83
2021/12/07 10:46:56;;;;;;;3.85;3.30;;;;;;;;;;5036622;28;20226;-83
2021/12/07 10:49:43;;;;;;;2.75;2.55;;;;;;;;;;5037074;28;20205;-83
2021/12/07 10:52:29;;;;;;;4.22;3.08;;;;;;;;;;5036804;28;20202;-82
2021/12/07 10:55:09;;;;;;;2.85;2.58;;;;;;;;;;5036561;28;20264;-82
2021/12/07 10:57:44;;;;;;;3.13;2.92;;;;;;;;;;5037332;28;20664;-84
2021/12/07 11:00:20;;;;;;;3.53;3.22;;;;;;;;;;5037153;28;20205;-82
2021/12/07 11:02:53;;;;;;;4.32;3.92;;;;;;;;;;5036905;28;20214;-83
2021/12/07 11:05:24;;;;;;;4.10;3.72;;;;;;;;;;5036367;28;20720;-84
2021/12/07 11:07:52;;;;;;;4.57;4.18;;;;;;;;;;5041021;28;20211;-82
2021/12/07 11:10:28;;;;;;;4.25;3.88;;;;;;;;;;5043336;28;20645;-82
2021/12/07 11:13:02;;;;;;;4.15;3.70;;;;;;;;;;5036398;28;20208;-83
2021/12/07 11:15:32;;;;;;;4.30;3.30;;;;;;;;;;5036269;28;20228;-82
2021/12/07 11:18:04;;;;;;;2.20;2.10;;;;;;;;;;5036115;28;20217;-83
2021/12/07 11:20:33;;;;;;;2.88;2.67;;;;;;;;;;5036074;28;20185;-83
2021/12/07 11:23:06;;;;;;;4.72;3.95;;;;;;;;;;5035706;28;20698;-83
2021/12/07 11:29:39;;;;;;;2.83;2.63;;;;;;;;;;5036450;28;20223;-84
2021/12/07 11:31:36;;;;;;;3.65;2.75;;;;;;;;;;5035471;28;20202;-82
2021/12/07 11:34:10;;;;;;;3.20;3.00;;;;;;;;;;5034763;28;20225;-81
2021/12/07 11:36:41;;;;;;;2.72;2.53;;;;;;;;;;5034748;28;20230;-82
2021/12/07 11:39:23;;;;;;;2.58;2.38;;;;;;;;;;5035577;28;20297;-83
2021/12/07 11:42:00;;;;;;;3.05;2.75;;;;;;;;;;5036301;28;20198;-82
2021/12/07 11:44:30;;;;;;;2.70;2.50;;;;;;;;;;5036210;28;20209;-84
2021/12/07 11:47:00;;;;;;;2.35;2.17;;;;;;;;;;5035000;28;20203;-81
2021/12/07 11:49:30;;;;;;;3.78;2.95;;;;;;;;;;5034979;28;20297;-82
2021/12/07 11:52:00;;;;;;;5.35;4.72;;;;;;;;;;5035985;28;20221;-83
2021/12/07 11:54:33;;;;;;;6.32;3.63;;;;;;;;;;5035879;28;20280;-82
2021/12/07 11:57:02;;;;;;;4.22;3.05;;;;;;;;;;5035430;28;20213;-82
2021/12/07 11:59:31;;;;;;;3.03;2.83;;;;;;;;;;5035222;28;20207;-82
2021/12/07 12:02:01;;;;;;;3.95;3.65;;;;;;;;;;5036383;28;20672;-83
2021/12/07 12:04:29;;;;;;;3.35;2.97;;;;;;;;;;5036848;28;20199;-83
2021/12/07 12:06:59;;;;;;;3.00;2.70;;;;;;;;;;5036680;28;20182;-84
2021/12/07 12:09:28;;;;;;;2.92;2.72;;;;;;;;;;5036061;28;20680;-83
2021/12/07 12:12:07;;;;;;;4.40;4.00;;;;;;;;;;5036213;28;20194;-83
2021/12/07 12:14:48;;;;;;;3.53;3.22;;;;;;;;;;5036132;28;20233;-86
2021/12/07 12:17:25;;;;;;;3.15;2.67;;;;;;;;;;5036955;28;20193;-85
2021/12/07 12:20:12;;;;;;;2.35;2.20;;;;;;;;;;5036736;28;20281;-82
2021/12/07 12:22:44;;;;;;;3.45;3.15;;;;;;;;;;5036698;28;20208;-85
2021/12/07 12:25:15;;;;;;;3.08;2.58;;;;;;;;;;5036114;28;20225;-85
2021/12/07 12:27:44;;;;;;;3.47;3.17;;;;;;;;;;5035484;28;20206;-85
2021/12/07 12:30:24;;;;;;;3.63;3.20;;;;;;;;;;5035438;28;20202;-85
2021/12/07 12:32:56;;;;;;;3.25;2.38;;;;;;;;;;5035575;28;20190;-86
2021/12/07 12:35:38;;;;;;;4.00;3.65;;;;;;;;;;5035809;28;20232;-87
2021/12/07 12:38:17;;;;;;;3.50;2.92;;;;;;;;;;5035322;28;20209;-85
2021/12/07 12:40:56;;;;;;;3.42;3.08;;;;;;;;;;5034825;28;20294;-86
2021/12/07 12:43:36;;;;;;;3.00;2.30;;;;;;;;;;5036220;28;20238;-86
2021/12/07 12:46:05;;;;;;;4.03;3.28;;;;;;;;;;5036094;28;20224;-86
2021/12/07 12:48:33;;;;;;;6.03;3.30;;;;;;;;;;5036524;28;20687;-86
2021/12/07 12:51:01;;;;;;;3.22;2.92;;;;;;;;;;5036807;28;20288;-86
2021/12/07 12:53:33;;;;;;;4.32;3.13;;;;;;;;;;5036510;28;20399;-86
2021/12/07 12:56:03;;;;;;;4.07;2.95;;;;;;;;;;5036164;28;20257;-86
2021/12/07 12:58:43;;;;;;;3.50;3.10;;;;;;;;;;5036132;28;20206;-86
2021/12/07 13:01:23;;;;;;;3.97;3.63;;;;;;;;;;5035933;28;20210;-85
2021/12/07 13:04:07;;;;;;;2.90;2.58;;;;;;;;;;5036029;28;20197;-85
2021/12/07 13:07:05;;;;;;;5.75;3.83;;;;;;;;;;5036670;28;20222;-85
2021/12/07 13:09:39;;;;;;;6.53;4.13;;;;;;;;;;5035993;28;20206;-86
2021/12/07 13:12:14;;;;;;;5.07;4.53;;;;;;;;;;5037338;28;20590;-85
2021/12/07 13:15:02;;;;;;;3.08;2.70;;;;;;;;;;5039668;28;20221;-85
2021/12/07 13:17:39;;;;;;;4.18;3.25;;;;;;;;;;5040255;28;20559;-85
2021/12/07 13:20:29;;;;;;;4.20;3.35;;;;;;;;;;5039852;28;20578;-85
2021/12/07 13:23:07;;;;;;;2.85;2.42;;;;;;;;;;5039740;28;20255;-85
2021/12/07 13:25:37;;;;;;;3.00;2.13;;;;;;;;;;5039310;28;20305;-85
2021/12/07 13:28:24;;;;;;;2.17;1.98;;;;;;;;;;5039196;28;20198;-85
2021/12/07 13:31:14;;;;;;;4.38;2.67;;;;;;;;;;5039602;28;20214;-86
2021/12/07 13:33:48;;;;;;;3.75;2.95;;;;;;;;;;5039622;28;20573;-85
2021/12/07 13:36:41;;;;;;;3.42;2.78;;;;;;;;;;5039175;28;20222;-86
2021/12/07 13:39:47;;;;;;;5.80;3.35;;;;;;;;;;5039345;28;20199;-85
2021/12/07 13:42:25;;;;;;;4.63;3.05;;;;;;;;;;5039704;28;20575;-85
2021/12/07 13:44:57;;;;;;;3.40;2.60;;;;;;;;;;5039561;28;20280;-86
2021/12/07 13:47:28;;;;;;;5.45;3.28;;;;;;;;;;5039662;28;20202;-85
2021/12/07 13:50:00;;;;;;;3.63;2.75;;;;;;;;;;5038876;28;20237;-86
2021/12/07 13:52:31;;;;;;;3.80;2.45;;;;;;;;;;5039738;28;20210;-86
2021/12/07 13:55:02;;;;;;;3.35;2.53;;;;;;;;;;5039113;28;20598;-85
2021/12/07 13:57:34;;;;;;;2.53;2.33;;;;;;;;;;5038892;28;20212;-85
2021/12/07 14:00:09;;;;;;;2.28;2.08;;;;;;;;;;5039080;28;20289;-85
2021/12/07 14:02:38;;;;;;;2.30;2.10;;;;;;;;;;5039412;28;20205;-85
2021/12/07 14:05:11;;;;;;;2.40;2.20;;;;;;;;;;5039165;28;20218;-85
2021/12/07 14:07:40;;;;;;;3.72;2.75;;;;;;;;;;5039187;28;20201;-85
2021/12/07 14:10:17;;;;;;;2.83;2.50;;;;;;;;;;5039358;28;20225;-84
2021/12/07 14:12:45;;;;;;;2.85;2.58;;;;;;;;;;5039415;28;20653;-85
2021/12/07 14:15:18;;;;;;;2.75;2.33;;;;;;;;;;5038269;28;20676;-85
2021/12/07 14:17:48;;;;;;;3.20;2.90;;;;;;;;;;5039370;28;20608;-85
2021/12/07 14:20:33;;;;;;;3.03;2.72;;;;;;;;;;5038813;28;20206;-86
2021/12/07 14:23:16;;;;;;;2.80;2.55;;;;;;;;;;5038235;28;20206;-85
2021/12/07 14:25:56;;;;;;;2.40;2.20;;;;;;;;;;5039062;28;20218;-85
2021/12/07 14:28:31;;;;;;;2.90;2.67;;;;;;;;;;5038746;28;20203;-85
2021/12/07 14:31:04;;;;;;;6.05;2.42;;;;;;;;;;5038513;28;20197;-85
2021/12/07 14:33:36;;;;;;;3.63;2.50;;;;;;;;;;5038664;28;20245;-85
2021/12/07 14:36:05;;;;;;;2.60;2.40;;;;;;;;;;5038944;28;20229;-86
2021/12/07 14:38:34;;;;;;;2.63;2.42;;;;;;;;;;5039283;28;20586;-86
2021/12/07 14:41:07;;;;;;;2.60;2.38;;;;;;;;;;5037292;28;20206;-85
2021/12/07 14:43:37;;;;;;;2.22;2.03;;;;;;;;;;5038089;28;20183;-88
2021/12/07 14:46:07;;;;;;;1.98;1.80;;;;;;;;;;5037169;28;20222;-86
2021/12/07 14:48:35;;;;;;;3.85;3.30;;;;;;;;;;5037453;28;20197;-86
2021/12/07 14:51:08;;;;;;;3.22;2.95;;;;;;;;;;5037892;28;20226;-84
2021/12/07 14:53:38;;;;;;;2.60;2.35;;;;;;;;;;5038337;28;20578;-85
2021/12/07 14:56:07;;;;;;;2.72;2.53;;;;;;;;;;5039147;28;20226;-86
2021/12/07 14:58:36;;;;;;;2.80;2.60;;;;;;;;;;5038512;28;20720;-84
2021/12/07 15:01:07;;;;;;;4.47;3.20;;;;;;;;;;5038463;28;20532;-84
2021/12/07 15:03:37;;;;;;;2.40;2.20;;;;;;;;;;5038504;28;20179;-84
2021/12/07 15:06:07;;;;;;;2.78;2.58;;;;;;;;;;5038081;28;20219;-85
2021/12/07 15:08:35;;;;;;;2.65;2.40;;;;;;;;;;5038546;28;20194;-86
2021/12/07 15:11:04;;;;;;;2.88;2.30;;;;;;;;;;5038388;28;20680;-85
2021/12/07 15:13:34;;;;;;;4.68;3.38;;;;;;;;;;5039038;28;20209;-86
2021/12/07 15:16:02;;;;;;;3.72;2.50;;;;;;;;;;5037745;28;20223;-86
2021/12/07 15:18:38;;;;;;;2.35;2.15;;;;;;;;;;5037519;28;20233;-86
2021/12/07 15:21:08;;;;;;;3.25;2.17;;;;;;;;;;5037847;28;20607;-86
2021/12/07 15:23:36;;;;;;;3.13;2.25;;;;;;;;;;5036654;28;20211;-87
2021/12/07 15:26:03;;;;;;;2.95;2.30;;;;;;;;;;5037674;28;20214;-85
2021/12/07 15:28:31;;;;;;;4.53;2.20;;;;;;;;;;5038164;28;20183;-87
2021/12/07 15:30:59;;;;;;;2.95;2.53;;;;;;;;;;5036939;28;20210;-85
2021/12/07 15:33:26;;;;;;;2.30;2.08;;;;;;;;;;5037333;28;20206;-84
2021/12/07 15:35:54;;;;;;;2.47;2.28;;;;;;;;;;5035293;28;20232;-85
2021/12/07 15:38:23;;;;;;;2.40;2.20;;;;;;;;;;5036723;28;20193;-85
2021/12/07 15:40:50;;;;;;;2.38;2.17;;;;;;;;;;5036133;28;20203;-84
2021/12/07 15:43:17;;;;;;;2.13;1.92;;;;;;;;;;5036105;28;20582;-84
2021/12/07 15:45:47;;;;;;;2.45;2.15;;;;;;;;;;5035682;28;20226;-83
2021/12/07 15:48:14;;;;;;;2.35;2.13;;;;;;;;;;5035310;28;20750;-83
2021/12/07 15:50:42;;;;;;;2.60;2.40;;;;;;;;;;5035665;28;20222;-84
2021/12/07 15:53:11;;;;;;;2.58;1.90;;;;;;;;;;5036420;28;20202;-84
2021/12/07 15:55:42;;;;;;;2.17;1.80;;;;;;;;;;5036549;28;20233;-84
2021/12/07 15:58:23;;;;;;;2.15;1.95;;;;;;;;;;5036927;28;20227;-84
2021/12/07 16:00:57;;;;;;;2.08;1.88;;;;;;;;;;5036893;28;20643;-84
2021/12/07 16:03:27;;;;;;;3.20;2.42;;;;;;;;;;5036352;28;20641;-83
2021/12/07 16:05:58;;;;;;;2.00;1.90;;;;;;;;;;5036196;28;20226;-83
2021/12/07 16:08:28;;;;;;;1.95;1.80;;;;;;;;;;5035815;28;20190;-82
2021/12/07 16:11:06;;;;;;;1.92;1.83;;;;;;;;;;5036042;28;20294;-83
2021/12/07 16:13:36;;;;;;;2.33;2.13;;;;;;;;;;5035630;28;20183;-83
2021/12/07 16:16:06;;;;;;;4.03;3.28;;;;;;;;;;5035081;28;20232;-83
2021/12/07 16:18:36;;;;;;;2.53;2.15;;;;;;;;;;5035530;28;20189;-83
2021/12/07 16:21:05;;;;;;;2.47;2.20;;;;;;;;;;5035952;28;20562;-82
2021/12/07 16:23:37;;;;;;;4.43;2.85;;;;;;;;;;5035813;28;20202;-83